createdAt,value
2023-05-09T00:00:06.576Z,11.82
2023-05-09T00:01:13.256Z,11.79
2023-05-09T00:02:16.005Z,11.75
2023-05-09T00:03:18.338Z,11.72
2023-05-09T00:04:20.636Z,11.69
2023-05-09T00:05:23.399Z,11.66
2023-05-09T00:06:26.392Z,11.64
2023-05-09T00:07:29.375Z,11.64
2023-05-09T00:08:31.692Z,11.63
2023-05-09T00:09:33.781Z,11.60
2023-05-09T00:10:36.927Z,11.61
2023-05-09T00:11:39.442Z,11.63
2023-05-09T00:12:41.595Z,11.62
2023-05-09T00:13:44.278Z,11.61
2023-05-09T00:14:46.972Z,11.59
2023-05-09T00:15:49.858Z,11.58
2023-05-09T00:16:52.241Z,11.55
2023-05-09T00:17:54.489Z,11.55
2023-05-09T00:18:57.024Z,11.55
2023-05-09T00:19:59.491Z,11.56
2023-05-09T00:21:02.300Z,11.56
2023-05-09T00:22:05.578Z,11.55
2023-05-09T00:23:07.812Z,11.56
2023-05-09T00:24:09.991Z,11.58
2023-05-09T00:25:12.666Z,11.61
2023-05-09T00:26:15.885Z,11.61
2023-05-09T00:27:19.243Z,11.61
2023-05-09T00:28:21.323Z,11.60
2023-05-09T00:30:39.407Z,11.70
2023-05-09T00:31:41.312Z,11.59
2023-05-09T00:32:43.523Z,11.61
2023-05-09T00:33:45.857Z,11.60
2023-05-09T00:34:48.552Z,11.60
2023-05-09T00:35:50.928Z,11.59
2023-05-09T00:36:53.561Z,11.58
2023-05-09T00:37:55.662Z,11.56
2023-05-09T00:38:57.713Z,11.57
2023-05-09T00:40:00.220Z,11.55
2023-05-09T00:41:02.411Z,11.51
2023-05-09T00:42:04.841Z,11.51
2023-05-09T00:43:07.121Z,11.48
2023-05-09T00:44:09.201Z,11.47
2023-05-09T00:45:11.569Z,11.45
2023-05-09T00:46:14.973Z,11.45
2023-05-09T00:47:18.084Z,11.43
2023-05-09T00:48:21.100Z,11.42
2023-05-09T00:49:23.868Z,11.39
2023-05-09T00:50:26.396Z,11.40
2023-05-09T00:51:28.754Z,11.39
2023-05-09T00:52:33.006Z,11.42
2023-05-09T00:53:35.930Z,11.44
2023-05-09T00:54:38.390Z,11.44
2023-05-09T00:55:41.071Z,11.44
2023-05-09T00:56:43.885Z,11.44
2023-05-09T00:57:46.070Z,11.47
2023-05-09T00:58:48.717Z,11.48
2023-05-09T00:59:50.938Z,11.47
2023-05-09T01:00:53.410Z,11.42
2023-05-09T01:01:55.707Z,11.40
2023-05-09T01:02:58.691Z,11.38
2023-05-09T01:04:00.943Z,11.35
2023-05-09T01:05:03.302Z,11.35
2023-05-09T01:07:34.912Z,11.46
2023-05-09T01:08:43.738Z,11.31
2023-05-09T01:10:06.471Z,11.31
2023-05-09T01:11:15.105Z,11.29
2023-05-09T01:13:49.710Z,11.40
2023-05-09T01:15:01.360Z,11.30
2023-05-09T01:16:07.942Z,11.32
2023-05-09T01:22:40.895Z,11.47
2023-05-09T01:24:15.928Z,11.33
2023-05-09T01:27:30.908Z,11.43
2023-05-09T01:30:27.224Z,11.44
2023-05-09T01:31:30.971Z,11.29
2023-05-09T01:32:35.411Z,11.26
2023-05-09T01:33:39.930Z,11.24
2023-05-09T01:34:43.774Z,11.23
2023-05-09T01:35:49.574Z,11.23
2023-05-09T01:36:59.877Z,11.21
2023-05-09T01:38:05.785Z,11.19
2023-05-09T01:39:13.255Z,11.15
2023-05-09T01:40:17.707Z,11.13
2023-05-09T01:41:21.609Z,11.13
2023-05-09T01:42:26.173Z,11.12
2023-05-09T01:43:29.829Z,11.12
2023-05-09T01:44:35.536Z,11.10
2023-05-09T01:45:38.981Z,11.13
2023-05-09T01:46:42.839Z,11.11
2023-05-09T01:47:47.900Z,11.09
2023-05-09T01:48:50.437Z,11.07
2023-05-09T01:49:54.500Z,11.06
2023-05-09T01:51:00.050Z,11.06
2023-05-09T01:52:11.820Z,11.09
2023-05-09T01:53:16.120Z,11.10
2023-05-09T01:54:18.751Z,11.08
2023-05-09T01:55:25.994Z,11.07
2023-05-09T01:56:29.223Z,11.03
2023-05-09T01:57:32.624Z,11.01
2023-05-09T01:58:36.447Z,11.00
2023-05-09T01:59:41.424Z,11.03
2023-05-09T02:00:44.979Z,11.02
2023-05-09T02:01:47.986Z,11.01
2023-05-09T02:02:52.297Z,11.01
2023-05-09T02:03:55.974Z,11.01
2023-05-09T02:04:58.388Z,11.01
2023-05-09T02:06:02.718Z,11.02
2023-05-09T02:07:05.925Z,11.04
2023-05-09T02:08:08.422Z,11.05
2023-05-09T02:09:11.211Z,11.04
2023-05-09T02:10:15.809Z,11.05
2023-05-09T02:11:18.694Z,11.07
2023-05-09T02:12:24.524Z,11.05
2023-05-09T02:13:26.914Z,11.06
2023-05-09T02:14:30.190Z,11.07
2023-05-09T02:15:32.754Z,11.08
2023-05-09T02:16:36.226Z,11.09
2023-05-09T02:17:38.574Z,11.09
2023-05-09T02:18:54.482Z,11.08
2023-05-09T02:19:57.194Z,11.09
2023-05-09T02:21:00.292Z,11.11
2023-05-09T02:22:03.364Z,11.13
2023-05-09T02:23:07.158Z,11.13
2023-05-09T02:24:09.235Z,11.11
2023-05-09T02:25:13.041Z,11.09
2023-05-09T02:26:15.651Z,11.10
2023-05-09T02:27:18.620Z,11.11
2023-05-09T02:28:22.754Z,11.09
2023-05-09T02:29:28.592Z,11.08
2023-05-09T02:30:34.515Z,11.04
2023-05-09T02:32:48.693Z,11.11
2023-05-09T02:33:52.290Z,10.98
2023-05-09T02:34:55.407Z,11.00
2023-05-09T02:35:57.618Z,11.04
2023-05-09T02:36:59.992Z,11.07
2023-05-09T02:38:03.236Z,11.06
2023-05-09T02:39:05.431Z,11.09
2023-05-09T02:40:09.594Z,11.09
2023-05-09T02:42:26.519Z,11.20
2023-05-09T02:43:28.711Z,11.06
2023-05-09T02:44:30.803Z,11.05
2023-05-09T02:45:33.106Z,11.05
2023-05-09T02:46:35.650Z,11.05
2023-05-09T02:47:38.788Z,11.08
2023-05-09T02:48:41.145Z,11.09
2023-05-09T02:49:43.254Z,11.10
2023-05-09T02:50:45.508Z,11.12
2023-05-09T02:51:47.708Z,11.11
2023-05-09T02:52:49.894Z,11.11
2023-05-09T02:53:52.660Z,11.10
2023-05-09T02:54:55.451Z,11.10
2023-05-09T02:55:58.094Z,11.06
2023-05-09T02:57:00.377Z,11.05
2023-05-09T02:58:13.596Z,11.05
2023-05-09T02:59:08.863Z,11.04
2023-05-09T03:00:19.011Z,11.07
2023-05-09T03:01:21.298Z,11.05
2023-05-09T03:02:23.694Z,11.02
2023-05-09T03:03:27.068Z,11.01
2023-05-09T03:04:29.511Z,11.02
2023-05-09T03:05:31.502Z,11.01
2023-05-09T03:06:47.330Z,11.02
2023-05-09T03:07:49.862Z,11.04
2023-05-09T03:08:52.064Z,11.07
2023-05-09T03:09:56.150Z,11.07
2023-05-09T03:10:58.546Z,11.07
2023-05-09T03:12:01.061Z,11.04
2023-05-09T03:13:03.245Z,11.03
2023-05-09T03:14:06.029Z,10.98
2023-05-09T03:15:09.551Z,10.96
2023-05-09T03:16:14.101Z,10.94
2023-05-09T03:17:16.678Z,10.93
2023-05-09T03:18:19.609Z,10.94
2023-05-09T03:19:22.357Z,10.98
2023-05-09T03:20:25.837Z,11.01
2023-05-09T03:21:28.271Z,11.03
2023-05-09T03:22:31.365Z,11.02
2023-05-09T03:23:35.824Z,11.01
2023-05-09T03:24:38.465Z,11.01
2023-05-09T03:25:40.827Z,11.02
2023-05-09T03:26:43.325Z,11.02
2023-05-09T03:27:46.080Z,11.04
2023-05-09T03:28:50.403Z,11.03
2023-05-09T03:29:52.602Z,11.02
2023-05-09T03:30:56.180Z,11.04
2023-05-09T03:31:59.839Z,11.04
2023-05-09T03:33:02.279Z,11.04
2023-05-09T03:34:05.229Z,11.04
2023-05-09T03:35:08.206Z,11.02
2023-05-09T03:36:11.171Z,11.01
2023-05-09T03:37:15.348Z,11.00
2023-05-09T03:38:18.319Z,11.01
2023-05-09T03:39:20.485Z,11.03
2023-05-09T03:40:24.397Z,11.05
2023-05-09T03:41:28.635Z,11.07
2023-05-09T03:42:32.918Z,11.10
2023-05-09T03:43:36.264Z,11.10
2023-05-09T03:44:38.461Z,11.12
2023-05-09T03:45:40.765Z,11.14
2023-05-09T03:46:44.767Z,11.15
2023-05-09T03:47:47.570Z,11.16
2023-05-09T03:48:50.685Z,11.17
2023-05-09T03:49:52.796Z,11.19
2023-05-09T03:50:56.525Z,11.23
2023-05-09T03:52:00.643Z,11.26
2023-05-09T03:53:03.756Z,11.26
2023-05-09T03:54:07.206Z,11.28
2023-05-09T03:55:09.987Z,11.30
2023-05-09T03:57:28.834Z,11.42
2023-05-09T03:58:31.672Z,11.30
2023-05-09T03:59:34.985Z,11.30
2023-05-09T04:00:38.432Z,11.33
2023-05-09T04:01:42.528Z,11.36
2023-05-09T04:02:44.968Z,11.38
2023-05-09T04:03:49.450Z,11.35
2023-05-09T04:04:52.545Z,11.35
2023-05-09T04:05:55.596Z,11.35
2023-05-09T04:07:00.194Z,11.37
2023-05-09T04:08:05.094Z,11.48
2023-05-09T04:09:07.581Z,11.51
2023-05-09T04:10:11.699Z,11.55
2023-05-09T04:11:14.560Z,11.58
2023-05-09T04:12:21.737Z,11.61
2023-05-09T04:13:26.513Z,11.64
2023-05-09T04:14:29.635Z,11.66
2023-05-09T04:15:31.870Z,11.65
2023-05-09T04:16:34.086Z,11.64
2023-05-09T04:17:36.454Z,11.63
2023-05-09T04:18:39.431Z,11.60
2023-05-09T04:19:41.771Z,11.58
2023-05-09T04:20:45.281Z,11.56
2023-05-09T04:21:49.658Z,11.56
2023-05-09T04:22:52.337Z,11.59
2023-05-09T04:23:54.985Z,11.59
2023-05-09T04:24:58.984Z,11.60
2023-05-09T04:26:01.779Z,11.61
2023-05-09T04:27:04.826Z,11.62
2023-05-09T04:28:07.315Z,11.62
2023-05-09T04:29:10.694Z,11.63
2023-05-09T04:30:15.536Z,11.64
2023-05-09T04:32:27.188Z,11.81
2023-05-09T04:33:29.708Z,11.70
2023-05-09T04:34:34.171Z,11.73
2023-05-09T04:35:38.365Z,11.74
2023-05-09T04:36:41.393Z,11.74
2023-05-09T04:37:43.693Z,11.74
2023-05-09T04:38:46.269Z,11.75
2023-05-09T04:39:50.199Z,11.75
2023-05-09T04:40:54.404Z,11.78
2023-05-09T04:41:57.190Z,11.81
2023-05-09T04:42:59.567Z,11.84
2023-05-09T04:44:03.881Z,11.87
2023-05-09T04:45:07.474Z,11.88
2023-05-09T04:46:10.823Z,11.91
2023-05-09T04:47:13.152Z,11.92
2023-05-09T04:48:15.185Z,11.94
2023-05-09T04:49:17.400Z,11.95
2023-05-09T04:50:19.688Z,11.96
2023-05-09T04:51:21.971Z,11.97
2023-05-09T04:52:24.136Z,11.99
2023-05-09T04:53:26.314Z,12.00
2023-05-09T04:54:30.744Z,12.01
2023-05-09T04:55:32.953Z,12.02
2023-05-09T04:56:36.679Z,12.03
2023-05-09T04:57:38.767Z,12.02
2023-05-09T04:58:41.445Z,12.03
2023-05-09T04:59:45.405Z,12.06
2023-05-09T05:00:50.236Z,12.09
2023-05-09T05:01:53.752Z,12.14
2023-05-09T05:02:57.315Z,12.18
2023-05-09T05:04:01.326Z,12.23
2023-05-09T05:05:11.960Z,12.25
2023-05-09T05:06:13.080Z,12.29
2023-05-09T05:07:16.374Z,12.31
2023-05-09T05:08:20.491Z,12.34
2023-05-09T05:09:23.749Z,12.37
2023-05-09T05:10:26.684Z,12.37
2023-05-09T05:11:30.900Z,12.40
2023-05-09T05:12:33.291Z,12.42
2023-05-09T05:14:46.653Z,12.53
2023-05-09T05:15:50.785Z,12.42
2023-05-09T05:16:55.573Z,12.45
2023-05-09T05:17:58.337Z,12.47
2023-05-09T05:20:12.457Z,12.61
2023-05-09T05:21:16.473Z,12.51
2023-05-09T05:22:19.739Z,12.53
2023-05-09T05:23:22.506Z,12.57
2023-05-09T05:24:26.763Z,12.61
2023-05-09T05:26:40.011Z,12.76
2023-05-09T05:27:42.181Z,12.69
2023-05-09T05:28:45.949Z,12.70
2023-05-09T05:29:49.153Z,12.72
2023-05-09T05:30:51.435Z,12.77
2023-05-09T05:31:53.818Z,12.80
2023-05-09T05:32:56.508Z,12.83
2023-05-09T05:33:58.741Z,12.86
2023-05-09T05:36:12.761Z,13.00
2023-05-09T05:37:16.110Z,12.91
2023-05-09T05:38:18.352Z,12.93
2023-05-09T05:39:22.240Z,12.97
2023-05-09T05:40:25.141Z,13.01
2023-05-09T05:41:27.823Z,13.09
2023-05-09T05:43:46.190Z,13.22
2023-05-09T05:44:51.157Z,13.16
2023-05-09T05:45:55.525Z,13.16
2023-05-09T05:46:59.199Z,13.19
2023-05-09T05:48:01.875Z,13.22
2023-05-09T05:49:05.104Z,13.28
2023-05-09T05:50:09.863Z,13.33
2023-05-09T05:51:12.039Z,13.35
2023-05-09T05:53:34.883Z,13.55
2023-05-09T05:54:36.860Z,13.47
2023-05-09T05:55:40.060Z,13.69
2023-05-09T05:56:42.816Z,13.68
2023-05-09T05:57:45.549Z,13.77
2023-05-09T06:00:07.025Z,14.00
2023-05-09T06:01:10.986Z,13.89
2023-05-09T06:02:14.753Z,13.90
2023-05-09T06:03:17.197Z,13.90
2023-05-09T06:04:21.602Z,13.92
2023-05-09T06:05:24.731Z,13.93
2023-05-09T06:06:27.852Z,13.97
2023-05-09T06:08:40.367Z,14.13
2023-05-09T06:09:43.028Z,14.02
2023-05-09T06:10:45.452Z,14.06
2023-05-09T06:11:47.850Z,14.09
2023-05-09T06:12:50.023Z,14.11
2023-05-09T06:13:53.706Z,14.12
2023-05-09T06:14:55.741Z,14.15
2023-05-09T06:16:07.819Z,14.15
2023-05-09T06:17:03.248Z,14.18
2023-05-09T06:18:05.912Z,14.21
2023-05-09T06:19:09.405Z,14.24
2023-05-09T06:20:12.144Z,14.28
2023-05-09T06:21:14.344Z,14.31
2023-05-09T06:22:16.589Z,14.34
2023-05-09T06:23:18.788Z,14.38
2023-05-09T06:24:34.557Z,14.40
2023-05-09T06:25:24.774Z,14.43
2023-05-09T06:26:27.871Z,14.46
2023-05-09T06:27:34.388Z,14.49
2023-05-09T06:28:40.029Z,14.52
2023-05-09T06:30:57.850Z,14.69
2023-05-09T06:32:00.021Z,14.59
2023-05-09T06:33:02.190Z,14.60
2023-05-09T06:34:05.003Z,14.64
2023-05-09T06:35:08.267Z,14.65
2023-05-09T06:36:11.931Z,14.66
2023-05-09T06:37:13.992Z,14.70
2023-05-09T06:38:15.955Z,14.71
2023-05-09T06:39:18.000Z,14.73
2023-05-09T06:40:21.038Z,14.74
2023-05-09T06:41:25.903Z,14.75
2023-05-09T06:42:30.159Z,14.78
2023-05-09T06:43:34.398Z,14.80
2023-05-09T06:44:36.616Z,14.81
2023-05-09T06:45:38.691Z,14.83
2023-05-09T06:46:45.936Z,14.86
2023-05-09T06:47:50.655Z,14.90
2023-05-09T06:48:52.898Z,14.92
2023-05-09T06:51:04.477Z,15.07
2023-05-09T06:52:06.453Z,14.96
2023-05-09T06:53:08.562Z,14.98
2023-05-09T06:54:11.408Z,15.00
2023-05-09T06:55:14.819Z,15.03
2023-05-09T06:56:19.536Z,15.06
2023-05-09T06:57:21.513Z,15.09
2023-05-09T06:58:23.973Z,15.12
2023-05-09T06:59:26.440Z,15.16
2023-05-09T07:00:29.202Z,15.18
2023-05-09T07:01:33.566Z,15.20
2023-05-09T07:02:36.164Z,15.22
2023-05-09T07:03:38.743Z,15.27
2023-05-09T07:04:41.616Z,15.30
2023-05-09T07:05:43.976Z,15.32
2023-05-09T07:06:46.122Z,15.35
2023-05-09T07:07:48.644Z,15.37
2023-05-09T07:08:50.697Z,15.39
2023-05-09T07:10:07.308Z,15.40
2023-05-09T07:11:00.256Z,15.42
2023-05-09T07:12:02.456Z,15.44
2023-05-09T07:13:08.755Z,15.46
2023-05-09T07:14:13.145Z,15.48
2023-05-09T07:15:22.781Z,15.50
2023-05-09T07:16:20.955Z,15.52
2023-05-09T07:17:25.615Z,15.54
2023-05-09T07:18:28.105Z,15.59
2023-05-09T07:19:32.238Z,15.63
2023-05-09T07:20:34.603Z,15.66
2023-05-09T07:21:38.489Z,15.72
2023-05-09T07:22:45.004Z,15.78
2023-05-09T07:23:47.213Z,15.85
2023-05-09T07:24:49.629Z,15.91
2023-05-09T07:25:56.937Z,15.97
2023-05-09T07:27:05.704Z,16.06
2023-05-09T07:28:14.863Z,16.13
2023-05-09T07:29:17.406Z,16.21
2023-05-09T07:30:19.700Z,16.30
2023-05-09T07:31:28.023Z,16.37
2023-05-09T07:32:33.762Z,16.42
2023-05-09T07:33:41.687Z,16.46
2023-05-09T07:34:43.783Z,16.49
2023-05-09T07:35:51.033Z,16.49
2023-05-09T07:36:59.194Z,16.48
2023-05-09T07:38:03.322Z,16.46
2023-05-09T07:39:09.377Z,16.45
2023-05-09T07:40:13.823Z,16.44
2023-05-09T07:41:23.495Z,16.40
2023-05-09T07:43:36.999Z,16.46
2023-05-09T07:44:39.146Z,16.31
2023-05-09T07:45:48.644Z,16.30
2023-05-09T07:46:55.148Z,16.28
2023-05-09T07:47:58.848Z,16.25
2023-05-09T07:49:08.537Z,16.24
2023-05-09T07:50:11.239Z,16.23
2023-05-09T07:51:13.818Z,16.27
2023-05-09T07:52:16.093Z,16.31
2023-05-09T07:53:18.311Z,16.37
2023-05-09T07:54:23.342Z,16.41
2023-05-09T07:55:28.131Z,16.45
2023-05-09T07:56:33.416Z,16.48
2023-05-09T07:57:38.923Z,16.52
2023-05-09T07:58:41.779Z,16.54
2023-05-09T07:59:43.741Z,16.55
2023-05-09T08:00:46.037Z,16.60
2023-05-09T08:01:56.399Z,16.64
2023-05-09T08:02:59.474Z,16.69
2023-05-09T08:04:04.855Z,16.73
2023-05-09T08:05:09.346Z,16.76
2023-05-09T08:06:16.291Z,16.80
2023-05-09T08:07:19.892Z,16.82
2023-05-09T08:08:25.604Z,16.83
2023-05-09T08:09:29.601Z,16.86
2023-05-09T08:10:34.320Z,16.86
2023-05-09T08:11:36.386Z,16.87
2023-05-09T08:12:39.725Z,16.89
2023-05-09T08:13:42.409Z,16.90
2023-05-09T08:14:44.973Z,16.90
2023-05-09T08:15:49.565Z,16.90
2023-05-09T08:16:54.701Z,16.91
2023-05-09T08:17:58.495Z,16.92
2023-05-09T08:19:00.713Z,16.91
2023-05-09T08:20:05.116Z,16.89
2023-05-09T08:21:09.777Z,16.88
2023-05-09T08:22:21.008Z,16.88
2023-05-09T08:23:23.431Z,16.88
2023-05-09T08:24:29.474Z,16.88
2023-05-09T08:25:31.792Z,16.86
2023-05-09T08:26:35.224Z,16.86
2023-05-09T08:27:38.807Z,16.85
2023-05-09T08:28:43.620Z,16.86
2023-05-09T08:29:46.093Z,16.86
2023-05-09T08:30:49.419Z,16.86
2023-05-09T08:31:51.465Z,16.86
2023-05-09T08:34:04.731Z,16.99
2023-05-09T08:36:18.398Z,16.98
2023-05-09T08:37:21.009Z,16.87
2023-05-09T08:38:23.182Z,16.88
2023-05-09T08:39:25.232Z,16.86
2023-05-09T08:40:28.619Z,16.85
2023-05-09T08:41:33.125Z,16.84
2023-05-09T08:42:36.937Z,16.83
2023-05-09T08:43:40.784Z,16.81
2023-05-09T08:44:42.818Z,16.81
2023-05-09T08:47:03.104Z,16.89
2023-05-09T08:48:06.825Z,16.75
2023-05-09T08:49:09.455Z,16.74
2023-05-09T08:50:15.139Z,16.71
2023-05-09T08:51:20.770Z,16.70
2023-05-09T08:52:22.944Z,16.68
2023-05-09T08:53:25.410Z,16.67
2023-05-09T08:54:29.578Z,16.67
2023-05-09T08:55:32.471Z,16.68
2023-05-09T08:56:35.332Z,16.71
2023-05-09T08:57:39.104Z,16.74
2023-05-09T08:58:41.520Z,16.77
2023-05-09T08:59:47.100Z,16.83
2023-05-09T09:00:56.990Z,16.89
2023-05-09T09:02:00.868Z,16.95
2023-05-09T09:03:03.732Z,17.04
2023-05-09T09:04:07.744Z,17.11
2023-05-09T09:05:34.021Z,17.18
2023-05-09T09:06:29.387Z,17.29
2023-05-09T09:07:39.442Z,17.37
2023-05-09T09:08:41.893Z,17.46
2023-05-09T09:09:49.276Z,17.54
2023-05-09T09:10:54.444Z,17.61
2023-05-09T09:12:00.139Z,17.67
2023-05-09T09:13:05.129Z,17.74
2023-05-09T09:15:59.741Z,17.99
2023-05-09T09:17:05.056Z,17.93
2023-05-09T09:19:31.863Z,18.16
2023-05-09T09:21:54.903Z,18.25
2023-05-09T09:23:00.952Z,18.15
2023-05-09T09:24:06.326Z,18.18
2023-05-09T09:25:12.777Z,18.18
2023-05-09T09:26:16.888Z,18.18
2023-05-09T09:27:19.574Z,18.18
2023-05-09T09:29:36.726Z,18.24
2023-05-09T09:30:48.749Z,18.08
2023-05-09T09:31:55.695Z,18.07
2023-05-09T09:33:01.352Z,18.04
2023-05-09T09:34:06.887Z,18.00
2023-05-09T09:35:17.372Z,17.98
2023-05-09T09:37:40.926Z,18.03
2023-05-09T09:38:46.830Z,17.88
2023-05-09T09:41:09.277Z,17.89
2023-05-09T09:42:15.402Z,17.72
2023-05-09T09:43:28.728Z,17.67
2023-05-09T09:44:36.015Z,17.64
2023-05-09T09:45:41.666Z,17.59
2023-05-09T09:46:48.842Z,17.56
2023-05-09T09:47:51.191Z,17.51
2023-05-09T09:48:55.910Z,17.48
2023-05-09T09:49:58.001Z,17.46
2023-05-09T09:51:12.181Z,17.42
2023-05-09T09:52:17.956Z,17.39
2023-05-09T09:53:20.667Z,17.35
2023-05-09T09:55:45.912Z,17.39
2023-05-09T09:56:55.581Z,17.24
2023-05-09T09:57:58.388Z,17.20
2023-05-09T09:59:20.596Z,17.18
2023-05-09T10:00:28.498Z,17.17
2023-05-09T10:01:33.381Z,17.16
2023-05-09T10:04:16.222Z,17.21
2023-05-09T10:05:23.834Z,17.08
2023-05-09T10:08:07.475Z,17.17
2023-05-09T10:09:11.168Z,17.05
2023-05-09T10:10:13.811Z,17.04
2023-05-09T10:11:16.892Z,17.03
2023-05-09T10:12:19.473Z,17.03
2023-05-09T10:13:21.635Z,17.02
2023-05-09T10:14:26.724Z,17.01
2023-05-09T10:15:45.059Z,17.02
2023-05-09T10:16:44.138Z,17.01
2023-05-09T10:17:46.198Z,17.03
2023-05-09T10:18:48.553Z,17.03
2023-05-09T10:19:51.378Z,17.01
2023-05-09T10:20:58.793Z,17.00
2023-05-09T10:22:05.420Z,17.00
2023-05-09T10:23:08.257Z,17.02
2023-05-09T10:24:12.283Z,17.03
2023-05-09T10:25:20.298Z,17.04
2023-05-09T10:26:23.916Z,17.05
2023-05-09T10:27:27.557Z,17.06
2023-05-09T10:28:32.335Z,17.07
2023-05-09T10:29:37.412Z,17.08
2023-05-09T10:30:56.214Z,17.08
2023-05-09T10:33:16.098Z,17.24
2023-05-09T10:34:18.769Z,17.12
2023-05-09T10:35:24.471Z,17.14
2023-05-09T10:36:36.754Z,17.15
2023-05-09T10:37:39.746Z,17.20
2023-05-09T10:40:06.040Z,17.29
2023-05-09T10:41:10.528Z,17.16
2023-05-09T10:42:14.680Z,17.17
2023-05-09T10:43:17.679Z,17.19
2023-05-09T10:44:24.762Z,17.20
2023-05-09T10:45:27.384Z,17.22
2023-05-09T10:46:33.123Z,17.21
2023-05-09T10:47:35.678Z,17.20
2023-05-09T10:49:49.228Z,17.32
2023-05-09T10:50:51.715Z,17.18
2023-05-09T10:51:53.831Z,17.19
2023-05-09T10:53:07.181Z,17.19
2023-05-09T10:55:57.626Z,17.34
2023-05-09T10:57:01.362Z,17.23
2023-05-09T10:59:57.800Z,17.37
2023-05-09T11:01:01.540Z,17.24
2023-05-09T11:02:05.867Z,17.22
2023-05-09T11:03:15.935Z,17.19
2023-05-09T11:04:20.299Z,17.17
2023-05-09T11:05:28.553Z,17.15
2023-05-09T11:06:46.806Z,17.13
2023-05-09T11:09:24.268Z,17.24
2023-05-09T11:10:26.493Z,17.11
2023-05-09T11:11:32.928Z,17.15
2023-05-09T11:12:58.251Z,17.16
2023-05-09T11:14:15.269Z,17.21
2023-05-09T11:15:18.902Z,17.24
2023-05-09T11:16:25.627Z,17.26
2023-05-09T11:17:31.524Z,17.26
2023-05-09T11:18:33.683Z,17.26
2023-05-09T11:20:51.988Z,17.35
2023-05-09T11:22:01.950Z,17.23
2023-05-09T11:23:04.574Z,17.22
2023-05-09T11:24:17.507Z,17.19
2023-05-09T11:25:25.323Z,17.19
2023-05-09T11:26:29.566Z,17.17
2023-05-09T11:28:54.495Z,17.26
2023-05-09T11:29:58.777Z,17.14
2023-05-09T11:31:12.878Z,17.14
2023-05-09T11:32:16.546Z,17.17
2023-05-09T11:33:27.344Z,17.19
2023-05-09T11:34:30.189Z,17.19
2023-05-09T11:35:33.363Z,17.17
2023-05-09T11:36:36.830Z,17.16
2023-05-09T11:37:47.670Z,17.15
2023-05-09T11:39:08.055Z,17.16
2023-05-09T11:40:12.622Z,17.15
2023-05-09T11:41:15.580Z,17.14
2023-05-09T11:42:18.209Z,17.15
2023-05-09T11:44:31.414Z,17.25
2023-05-09T11:45:34.497Z,17.11
2023-05-09T11:46:37.485Z,17.10
2023-05-09T11:47:40.181Z,17.09
2023-05-09T11:48:42.411Z,17.11
2023-05-09T11:49:44.653Z,17.11
2023-05-09T11:50:47.228Z,17.09
2023-05-09T11:51:49.806Z,17.09
2023-05-09T11:52:53.170Z,17.08
2023-05-09T11:53:55.435Z,17.07
2023-05-09T11:54:59.046Z,17.08
2023-05-09T11:56:04.303Z,17.08
2023-05-09T11:57:06.911Z,17.08
2023-05-09T11:58:09.775Z,17.09
2023-05-09T11:59:12.026Z,17.09
2023-05-09T12:00:21.891Z,17.10
2023-05-09T12:01:24.406Z,17.10
2023-05-09T12:02:27.137Z,17.10
2023-05-09T12:03:33.170Z,17.11
2023-05-09T12:04:35.829Z,17.11
2023-05-09T12:05:38.475Z,17.12
2023-05-09T12:06:45.589Z,17.12
2023-05-09T12:07:48.413Z,17.12
2023-05-09T12:08:50.609Z,17.11
2023-05-09T12:09:52.742Z,17.10
2023-05-09T12:10:58.945Z,17.10
2023-05-09T12:12:01.365Z,17.10
2023-05-09T12:13:04.678Z,17.09
2023-05-09T12:14:07.057Z,17.09
2023-05-09T12:15:10.386Z,17.08
2023-05-09T12:17:22.450Z,17.14
2023-05-09T12:18:24.290Z,17.01
2023-05-09T12:19:27.806Z,16.99
2023-05-09T12:21:59.331Z,17.07
2023-05-09T12:23:02.852Z,16.95
2023-05-09T12:24:05.535Z,16.95
2023-05-09T12:25:09.573Z,16.94
2023-05-09T12:26:12.371Z,16.96
2023-05-09T12:27:14.830Z,16.95
2023-05-09T12:29:38.560Z,17.06
2023-05-09T12:30:40.847Z,16.95
2023-05-09T12:31:43.315Z,16.98
2023-05-09T12:32:47.937Z,17.00
2023-05-09T12:33:50.808Z,17.00
2023-05-09T12:34:53.413Z,17.03
2023-05-09T12:36:08.006Z,17.04
2023-05-09T12:37:18.228Z,17.05
2023-05-09T12:38:21.892Z,17.08
2023-05-09T12:39:24.219Z,17.09
2023-05-09T12:40:28.069Z,17.11
2023-05-09T12:41:39.079Z,17.10
2023-05-09T12:42:35.765Z,17.09
2023-05-09T12:43:38.339Z,17.09
2023-05-09T12:44:40.881Z,17.08
2023-05-09T12:45:42.733Z,17.07
2023-05-09T12:48:10.666Z,17.13
2023-05-09T12:49:23.092Z,17.00
2023-05-09T12:50:33.096Z,16.99
2023-05-09T12:51:35.348Z,16.98
2023-05-09T12:52:50.560Z,16.96
2023-05-09T12:53:45.501Z,16.95
2023-05-09T12:54:47.579Z,16.94
2023-05-09T12:55:49.768Z,16.93
2023-05-09T12:56:54.789Z,16.92
2023-05-09T12:57:58.941Z,16.90
2023-05-09T12:59:02.075Z,16.89
2023-05-09T13:00:07.681Z,16.86
2023-05-09T13:01:10.826Z,16.84
2023-05-09T13:02:13.701Z,16.83
2023-05-09T13:04:32.905Z,16.90
2023-05-09T13:06:53.012Z,16.87
2023-05-09T13:07:57.120Z,16.74
2023-05-09T13:09:02.538Z,16.73
2023-05-09T13:10:14.131Z,16.73
2023-05-09T13:11:17.166Z,16.73
2023-05-09T13:12:21.163Z,16.72
2023-05-09T13:13:27.034Z,16.72
2023-05-09T13:14:30.336Z,16.72
2023-05-09T13:16:49.840Z,16.80
2023-05-09T13:17:53.617Z,16.67
2023-05-09T13:18:59.125Z,16.67
2023-05-09T13:20:05.105Z,16.66
2023-05-09T13:21:07.437Z,16.65
2023-05-09T13:22:12.213Z,16.65
2023-05-09T13:23:16.664Z,16.65
2023-05-09T13:24:18.895Z,16.65
2023-05-09T13:25:25.191Z,16.64
2023-05-09T13:26:27.533Z,16.63
2023-05-09T13:27:30.287Z,16.63
2023-05-09T13:28:33.509Z,16.63
2023-05-09T13:29:36.170Z,16.61
2023-05-09T13:30:38.504Z,16.62
2023-05-09T13:31:40.667Z,16.60
2023-05-09T13:32:42.630Z,16.59
2023-05-09T13:33:44.618Z,16.60
2023-05-09T13:34:48.585Z,16.58
2023-05-09T13:35:50.740Z,16.58
2023-05-09T13:36:54.402Z,16.56
2023-05-09T13:37:59.632Z,16.57
2023-05-09T13:39:01.723Z,16.56
2023-05-09T13:40:08.064Z,16.55
2023-05-09T13:41:11.101Z,16.54
2023-05-09T13:42:13.733Z,16.52
2023-05-09T13:43:17.029Z,16.52
2023-05-09T13:44:20.190Z,16.51
2023-05-09T13:45:23.469Z,16.50
2023-05-09T13:46:25.844Z,16.51
2023-05-09T13:47:30.539Z,16.51
2023-05-09T13:48:32.984Z,16.49
2023-05-09T13:49:36.102Z,16.49
2023-05-09T13:50:38.334Z,16.49
2023-05-09T13:51:41.665Z,16.48
2023-05-09T13:52:43.797Z,16.48
2023-05-09T13:53:47.555Z,16.47
2023-05-09T13:54:49.968Z,16.47
2023-05-09T13:55:52.245Z,16.47
2023-05-09T13:58:04.041Z,16.56
2023-05-09T13:59:07.710Z,16.43
2023-05-09T14:00:13.798Z,16.43
2023-05-09T14:01:17.153Z,16.44
2023-05-09T14:02:20.577Z,16.45
2023-05-09T14:03:24.292Z,16.46
2023-05-09T14:04:28.143Z,16.46
2023-05-09T14:05:34.011Z,16.46
2023-05-09T14:06:36.141Z,16.45
2023-05-09T14:07:38.748Z,16.45
2023-05-09T14:08:40.978Z,16.44
2023-05-09T14:09:43.255Z,16.45
2023-05-09T14:10:45.976Z,16.42
2023-05-09T14:11:51.097Z,16.42
2023-05-09T14:12:55.797Z,16.42
2023-05-09T14:13:59.107Z,16.41
2023-05-09T14:15:01.829Z,16.38
2023-05-09T14:16:04.947Z,16.40
2023-05-09T14:17:07.392Z,16.38
2023-05-09T14:18:10.060Z,16.37
2023-05-09T14:19:14.556Z,16.36
2023-05-09T14:20:17.438Z,16.36
2023-05-09T14:21:20.473Z,16.34
2023-05-09T14:22:22.930Z,16.34
2023-05-09T14:23:25.089Z,16.33
2023-05-09T14:24:28.352Z,16.34
2023-05-09T14:26:40.056Z,16.43
2023-05-09T14:27:41.955Z,16.30
2023-05-09T14:28:49.449Z,16.30
2023-05-09T14:29:52.908Z,16.30
2023-05-09T14:30:55.923Z,16.28
2023-05-09T14:32:01.181Z,16.28
2023-05-09T14:34:19.324Z,16.36
2023-05-09T14:35:21.742Z,16.25
2023-05-09T14:36:28.506Z,16.25
2023-05-09T14:37:33.461Z,16.24
2023-05-09T14:38:35.786Z,16.24
2023-05-09T14:39:38.998Z,16.24
2023-05-09T14:40:45.582Z,16.21
2023-05-09T14:41:50.659Z,16.21
2023-05-09T14:42:52.949Z,16.19
2023-05-09T14:43:55.131Z,16.18
2023-05-09T14:44:57.939Z,16.18
2023-05-09T14:46:00.567Z,16.18
2023-05-09T14:47:03.122Z,16.18
2023-05-09T14:48:05.629Z,16.19
2023-05-09T14:49:09.997Z,16.18
2023-05-09T14:50:16.184Z,16.17
2023-05-09T14:51:21.029Z,16.17
2023-05-09T14:52:26.593Z,16.15
2023-05-09T14:53:29.726Z,16.12
2023-05-09T14:54:32.045Z,16.12
2023-05-09T14:55:34.209Z,16.11
2023-05-09T14:56:37.112Z,16.11
2023-05-09T14:57:39.190Z,16.11
2023-05-09T14:58:43.314Z,16.09